sensor_id;sensor_type;location;lat;lon;timestamp;pressure;altitude;pressure_sealevel;temperature;humidity
6218;BME280;3142;48.206;11.550;2022-12-07T00:02:09;95714.50;;;4.55;80.85
6218;BME280;3142;48.206;11.550;2022-12-07T00:04:36;95707.19;;;4.59;80.90
6218;BME280;3142;48.206;11.550;2022-12-07T00:07:02;95715.94;;;4.58;80.34
6218;BME280;3142;48.206;11.550;2022-12-07T00:09:29;95712.22;;;4.60;80.32
6218;BME280;3142;48.206;11.550;2022-12-07T00:11:55;95709.78;;;4.59;80.44
6218;BME280;3142;48.206;11.550;2022-12-07T00:14:23;95714.81;;;4.60;80.31
6218;BME280;3142;48.206;11.550;2022-12-07T00:16:51;95707.38;;;4.57;79.96
6218;BME280;3142;48.206;11.550;2022-12-07T00:19:17;95705.09;;;4.54;80.30
6218;BME280;3142;48.206;11.550;2022-12-07T00:21:44;95703.16;;;4.48;79.94
6218;BME280;3142;48.206;11.550;2022-12-07T00:24:11;95698.31;;;4.53;80.55
6218;BME280;3142;48.206;11.550;2022-12-07T00:26:40;95696.84;;;4.51;80.82
6218;BME280;3142;48.206;11.550;2022-12-07T00:29:09;95691.47;;;4.52;80.95
6218;BME280;3142;48.206;11.550;2022-12-07T00:31:39;95692.97;;;4.55;80.42
6218;BME280;3142;48.206;11.550;2022-12-07T00:34:05;95694.59;;;4.56;80.82
6218;BME280;3142;48.206;11.550;2022-12-07T00:36:32;95688.09;;;4.60;80.54
6218;BME280;3142;48.206;11.550;2022-12-07T00:38:59;95692.13;;;4.62;80.40
6218;BME280;3142;48.206;11.550;2022-12-07T00:41:28;95696.84;;;4.59;80.44
6218;BME280;3142;48.206;11.550;2022-12-07T00:43:55;95696.69;;;4.60;80.59
6218;BME280;3142;48.206;11.550;2022-12-07T00:46:22;95702.03;;;4.59;80.59
6218;BME280;3142;48.206;11.550;2022-12-07T00:48:51;95693.13;;;4.53;80.58
6218;BME280;3142;48.206;11.550;2022-12-07T00:51:20;95701.38;;;4.57;80.77
6218;BME280;3142;48.206;11.550;2022-12-07T00:53:48;95703.78;;;4.50;80.90
6218;BME280;3142;48.206;11.550;2022-12-07T00:56:17;95701.72;;;4.54;81.09
6218;BME280;3142;48.206;11.550;2022-12-07T00:58:49;95698.44;;;4.52;81.32
6218;BME280;3142;48.206;11.550;2022-12-07T01:01:16;95696.34;;;4.47;81.48
6218;BME280;3142;48.206;11.550;2022-12-07T01:03:42;95695.53;;;4.46;81.59
6218;BME280;3142;48.206;11.550;2022-12-07T01:06:14;95692.78;;;4.48;81.30
6218;BME280;3142;48.206;11.550;2022-12-07T01:08:40;95689.38;;;4.47;81.29
6218;BME280;3142;48.206;11.550;2022-12-07T01:11:07;95693.94;;;4.54;81.24
6218;BME280;3142;48.206;11.550;2022-12-07T01:13:35;95690.84;;;4.50;80.89
6218;BME280;3142;48.206;11.550;2022-12-07T01:16:04;95690.38;;;4.55;81.24
6218;BME280;3142;48.206;11.550;2022-12-07T01:18:32;95698.44;;;4.52;80.35
6218;BME280;3142;48.206;11.550;2022-12-07T01:21:00;95705.28;;;4.53;81.00
6218;BME280;3142;48.206;11.550;2022-12-07T01:23:29;95689.72;;;4.53;80.84
6218;BME280;3142;48.206;11.550;2022-12-07T01:25:56;95702.00;;;4.51;81.02
6218;BME280;3142;48.206;11.550;2022-12-07T01:28:23;95700.22;;;4.51;80.76
6218;BME280;3142;48.206;11.550;2022-12-07T01:31:00;95696.50;;;4.45;81.42
6218;BME280;3142;48.206;11.550;2022-12-07T01:33:28;95699.75;;;4.47;81.46
6218;BME280;3142;48.206;11.550;2022-12-07T01:36:00;95696.84;;;4.51;81.25
6218;BME280;3142;48.206;11.550;2022-12-07T01:38:28;95693.44;;;4.50;81.50
6218;BME280;3142;48.206;11.550;2022-12-07T01:40:55;95697.00;;;4.49;81.50
6218;BME280;3142;48.206;11.550;2022-12-07T01:43:24;95700.09;;;4.53;81.17
6218;BME280;3142;48.206;11.550;2022-12-07T01:45:52;95692.31;;;4.53;81.20
6218;BME280;3142;48.206;11.550;2022-12-07T01:48:22;95691.19;;;4.55;80.88
6218;BME280;3142;48.206;11.550;2022-12-07T01:50:51;95699.13;;;4.54;80.85
6218;BME280;3142;48.206;11.550;2022-12-07T01:53:21;95693.94;;;4.54;80.98
6218;BME280;3142;48.206;11.550;2022-12-07T01:55:53;95689.72;;;4.53;80.64
6218;BME280;3142;48.206;11.550;2022-12-07T01:58:21;95690.38;;;4.55;80.84
6218;BME280;3142;48.206;11.550;2022-12-07T02:00:48;95694.06;;;4.52;80.95
6218;BME280;3142;48.206;11.550;2022-12-07T02:03:18;95692.66;;;4.41;81.38
6218;BME280;3142;48.206;11.550;2022-12-07T02:05:46;95690.53;;;4.45;81.85
6218;BME280;3142;48.206;11.550;2022-12-07T02:08:14;95684.38;;;4.46;81.50
6218;BME280;3142;48.206;11.550;2022-12-07T02:10:41;95692.16;;;4.46;81.81
6218;BME280;3142;48.206;11.550;2022-12-07T02:13:12;95684.84;;;4.50;81.74
6218;BME280;3142;48.206;11.550;2022-12-07T02:16:08;95680.19;;;4.53;81.26
6218;BME280;3142;48.206;11.550;2022-12-07T02:18:44;95678.72;;;4.59;81.38
6218;BME280;3142;48.206;11.550;2022-12-07T02:21:20;95673.53;;;4.59;81.07
6218;BME280;3142;48.206;11.550;2022-12-07T02:24:10;95679.69;;;4.58;81.21
6218;BME280;3142;48.206;11.550;2022-12-07T02:27:10;95676.78;;;4.53;80.93
6218;BME280;3142;48.206;11.550;2022-12-07T02:29:47;95671.72;;;4.51;81.13
6218;BME280;3142;48.206;11.550;2022-12-07T02:32:21;95665.75;;;4.51;81.13
6218;BME280;3142;48.206;11.550;2022-12-07T02:34:55;95670.28;;;4.49;81.39
6218;BME280;3142;48.206;11.550;2022-12-07T02:37:32;95662.50;;;4.49;81.40
6218;BME280;3142;48.206;11.550;2022-12-07T02:40:05;95668.16;;;4.52;81.15
6218;BME280;3142;48.206;11.550;2022-12-07T02:42:37;95672.72;;;4.50;81.27
6218;BME280;3142;48.206;11.550;2022-12-07T02:45:07;95668.03;;;4.45;81.32
6218;BME280;3142;48.206;11.550;2022-12-07T02:47:35;95664.28;;;4.48;81.73
6218;BME280;3142;48.206;11.550;2022-12-07T02:50:04;95664.47;;;4.46;82.01
6218;BME280;3142;48.206;11.550;2022-12-07T02:52:30;95666.56;;;4.51;82.28
6218;BME280;3142;48.206;11.550;2022-12-07T02:54:57;95669.00;;;4.53;81.37
6218;BME280;3142;48.206;11.550;2022-12-07T02:57:35;95667.69;;;4.49;81.79
6218;BME280;3142;48.206;11.550;2022-12-07T03:00:09;95661.72;;;4.48;81.83
6218;BME280;3142;48.206;11.550;2022-12-07T03:02:46;95663.31;;;4.49;81.35
6218;BME280;3142;48.206;11.550;2022-12-07T03:05:36;95664.47;;;4.46;81.80
6218;BME280;3142;48.206;11.550;2022-12-07T03:08:13;95668.34;;;4.51;81.41
6218;BME280;3142;48.206;11.550;2022-12-07T03:10:50;95666.56;;;4.43;81.44
6218;BME280;3142;48.206;11.550;2022-12-07T03:13:22;95654.94;;;4.39;81.41
6218;BME280;3142;48.206;11.550;2022-12-07T03:15:55;95662.38;;;4.42;81.82
6218;BME280;3142;48.206;11.550;2022-12-07T03:18:26;95662.69;;;4.39;81.76
6218;BME280;3142;48.206;11.550;2022-12-07T03:21:00;95656.84;;;4.37;82.48
6218;BME280;3142;48.206;11.550;2022-12-07T03:23:30;95663.19;;;4.42;81.72
6218;BME280;3142;48.206;11.550;2022-12-07T03:26:00;95669.16;;;4.43;82.20
6218;BME280;3142;48.206;11.550;2022-12-07T03:28:31;95663.19;;;4.42;81.92
6218;BME280;3142;48.206;11.550;2022-12-07T03:31:02;95670.78;;;4.44;82.37
6218;BME280;3142;48.206;11.550;2022-12-07T03:33:33;95663.34;;;4.41;82.09
6218;BME280;3142;48.206;11.550;2022-12-07T03:36:05;95664.00;;;4.43;82.45
6218;BME280;3142;48.206;11.550;2022-12-07T03:38:36;95654.28;;;4.45;81.63
6218;BME280;3142;48.206;11.550;2022-12-07T03:41:06;95656.06;;;4.44;82.09
6218;BME280;3142;48.206;11.550;2022-12-07T03:43:35;95660.59;;;4.42;81.54
6218;BME280;3142;48.206;11.550;2022-12-07T03:46:19;95658.97;;;4.41;81.37
6218;BME280;3142;48.206;11.550;2022-12-07T03:48:54;95660.13;;;4.39;81.53
6218;BME280;3142;48.206;11.550;2022-12-07T03:51:28;95655.06;;;4.37;81.89
6218;BME280;3142;48.206;11.550;2022-12-07T03:54:02;95663.50;;;4.39;81.03
6218;BME280;3142;48.206;11.550;2022-12-07T03:56:35;95654.44;;;4.35;81.14
6218;BME280;3142;48.206;11.550;2022-12-07T03:59:02;95650.38;;;4.33;81.62
6218;BME280;3142;48.206;11.550;2022-12-07T04:01:31;95651.66;;;4.37;81.74
6218;BME280;3142;48.206;11.550;2022-12-07T04:03:57;95653.44;;;4.36;81.63
6218;BME280;3142;48.206;11.550;2022-12-07T04:06:24;95644.88;;;4.36;81.79
6218;BME280;3142;48.206;11.550;2022-12-07T04:08:50;95641.81;;;4.40;81.06
6218;BME280;3142;48.206;11.550;2022-12-07T04:11:17;95650.22;;;4.42;81.22
6218;BME280;3142;48.206;11.550;2022-12-07T04:13:43;95650.22;;;4.42;81.00
6218;BME280;3142;48.206;11.550;2022-12-07T04:16:27;95646.03;;;4.41;81.04
6218;BME280;3142;48.206;11.550;2022-12-07T04:18:55;95647.81;;;4.41;81.24
6218;BME280;3142;48.206;11.550;2022-12-07T04:21:22;95648.09;;;4.38;81.48
6218;BME280;3142;48.206;11.550;2022-12-07T04:23:48;95650.88;;;4.36;81.20
6218;BME280;3142;48.206;11.550;2022-12-07T04:26:15;95652.81;;;4.34;81.75
6218;BME280;3142;48.206;11.550;2022-12-07T04:28:41;95653.16;;;4.39;82.41
6218;BME280;3142;48.206;11.550;2022-12-07T04:31:07;95652.00;;;4.42;81.76
6218;BME280;3142;48.206;11.550;2022-12-07T04:33:35;95649.41;;;4.42;81.55
6218;BME280;3142;48.206;11.550;2022-12-07T04:36:03;95651.84;;;4.43;81.80
6218;BME280;3142;48.206;11.550;2022-12-07T04:38:30;95650.56;;;4.39;81.42
6218;BME280;3142;48.206;11.550;2022-12-07T04:40:56;95650.41;;;4.41;81.98
6218;BME280;3142;48.206;11.550;2022-12-07T04:43:23;95648.78;;;4.40;82.38
6218;BME280;3142;48.206;11.550;2022-12-07T04:45:49;95645.38;;;4.39;82.61
6218;BME280;3142;48.206;11.550;2022-12-07T04:48:16;95644.56;;;4.39;82.83
6218;BME280;3142;48.206;11.550;2022-12-07T04:50:42;95653.16;;;4.39;82.71
6218;BME280;3142;48.206;11.550;2022-12-07T04:53:10;95647.47;;;4.36;82.59
6218;BME280;3142;48.206;11.550;2022-12-07T04:55:37;95650.69;;;4.38;82.92
6218;BME280;3142;48.206;11.550;2022-12-07T04:58:03;95648.91;;;4.38;82.71
6218;BME280;3142;48.206;11.550;2022-12-07T05:00:30;95645.69;;;4.36;83.32
6218;BME280;3142;48.206;11.550;2022-12-07T05:02:56;95651.84;;;4.35;83.30
6218;BME280;3142;48.206;11.550;2022-12-07T05:05:23;95650.06;;;4.28;83.99
6218;BME280;3142;48.206;11.550;2022-12-07T05:07:49;95657.19;;;4.34;83.92
6218;BME280;3142;48.206;11.550;2022-12-07T05:10:17;95657.00;;;4.35;83.81
6218;BME280;3142;48.206;11.550;2022-12-07T05:12:43;95651.03;;;4.27;84.28
6218;BME280;3142;48.206;11.550;2022-12-07T05:15:11;95650.72;;;4.30;83.81
6218;BME280;3142;48.206;11.550;2022-12-07T05:17:37;95661.25;;;4.28;84.35
6218;BME280;3142;48.206;11.550;2022-12-07T05:20:05;95656.53;;;4.32;84.00
6218;BME280;3142;48.206;11.550;2022-12-07T05:22:32;95644.91;;;4.28;83.63
6218;BME280;3142;48.206;11.550;2022-12-07T05:24:58;95648.28;;;4.28;83.74
6218;BME280;3142;48.206;11.550;2022-12-07T05:27:26;95656.38;;;4.25;83.83
6218;BME280;3142;48.206;11.550;2022-12-07T05:29:53;95650.69;;;4.22;83.63
6218;BME280;3142;48.206;11.550;2022-12-07T05:32:19;95658.13;;;4.25;83.69
6218;BME280;3142;48.206;11.550;2022-12-07T05:34:46;95655.41;;;4.26;83.57
6218;BME280;3142;48.206;11.550;2022-12-07T05:37:12;95652.97;;;4.25;83.65
6218;BME280;3142;48.206;11.550;2022-12-07T05:39:39;95648.75;;;4.24;83.51
6218;BME280;3142;48.206;11.550;2022-12-07T05:42:08;95657.50;;;4.23;84.57
6218;BME280;3142;48.206;11.550;2022-12-07T05:44:40;95650.88;;;4.20;84.17
6218;BME280;3142;48.206;11.550;2022-12-07T05:47:07;95655.06;;;4.21;84.28
6218;BME280;3142;48.206;11.550;2022-12-07T05:49:33;95657.50;;;4.23;84.17
6218;BME280;3142;48.206;11.550;2022-12-07T05:52:00;95644.56;;;4.23;83.56
6218;BME280;3142;48.206;11.550;2022-12-07T05:54:26;95653.47;;;4.20;83.83
6218;BME280;3142;48.206;11.550;2022-12-07T05:56:53;95649.59;;;4.16;83.70
6218;BME280;3142;48.206;11.550;2022-12-07T05:59:20;95647.00;;;4.16;83.32
6218;BME280;3142;48.206;11.550;2022-12-07T06:01:50;95650.56;;;4.15;83.06
6218;BME280;3142;48.206;11.550;2022-12-07T06:04:17;95645.38;;;4.15;83.41
6218;BME280;3142;48.206;11.550;2022-12-07T06:06:44;95646.34;;;4.14;82.86
6218;BME280;3142;48.206;11.550;2022-12-07T06:09:11;95650.88;;;4.12;82.84
6218;BME280;3142;48.206;11.550;2022-12-07T06:11:38;95654.91;;;4.06;82.76
6218;BME280;3142;48.206;11.550;2022-12-07T06:14:22;95661.06;;;4.05;82.72
6218;BME280;3142;48.206;11.550;2022-12-07T06:16:50;95657.16;;;4.09;83.43
6218;BME280;3142;48.206;11.550;2022-12-07T06:19:17;95657.16;;;4.09;83.65
6218;BME280;3142;48.206;11.550;2022-12-07T06:21:43;95667.53;;;4.09;82.77
6218;BME280;3142;48.206;11.550;2022-12-07T06:24:11;95660.88;;;4.07;83.00
6218;BME280;3142;48.206;11.550;2022-12-07T06:26:37;95660.56;;;4.10;83.19
6218;BME280;3142;48.206;11.550;2022-12-07T06:29:04;95666.41;;;4.12;83.38
6218;BME280;3142;48.206;11.550;2022-12-07T06:31:30;95669.66;;;4.14;83.57
6218;BME280;3142;48.206;11.550;2022-12-07T06:33:59;95673.38;;;4.11;83.06
6218;BME280;3142;48.206;11.550;2022-12-07T06:36:26;95671.44;;;4.13;83.46
6218;BME280;3142;48.206;11.550;2022-12-07T06:38:53;95673.22;;;4.13;83.36
6218;BME280;3142;48.206;11.550;2022-12-07T06:41:19;95677.06;;;4.09;83.38
6218;BME280;3142;48.206;11.550;2022-12-07T06:43:46;95674.47;;;4.09;82.89
6218;BME280;3142;48.206;11.550;2022-12-07T06:46:12;95673.84;;;4.07;83.23
6218;BME280;3142;48.206;11.550;2022-12-07T06:48:39;95674.81;;;4.06;83.82
6218;BME280;3142;48.206;11.550;2022-12-07T06:51:07;95672.38;;;4.04;83.73
6218;BME280;3142;48.206;11.550;2022-12-07T06:53:33;95676.41;;;4.07;83.83
6218;BME280;3142;48.206;11.550;2022-12-07T06:56:00;95673.03;;;4.06;83.27
6218;BME280;3142;48.206;11.550;2022-12-07T06:58:27;95678.03;;;4.08;83.70
6218;BME280;3142;48.206;11.550;2022-12-07T07:00:54;95673.03;;;4.06;82.49
6218;BME280;3142;48.206;11.550;2022-12-07T07:03:20;95678.84;;;4.08;83.54
6218;BME280;3142;48.206;11.550;2022-12-07T07:05:47;95675.78;;;4.05;83.44
6218;BME280;3142;48.206;11.550;2022-12-07T07:08:15;95678.38;;;4.05;83.25
6218;BME280;3142;48.206;11.550;2022-12-07T07:10:42;95685.81;;;4.00;83.50
6218;BME280;3142;48.206;11.550;2022-12-07T07:13:08;95674.66;;;3.99;82.80
6218;BME280;3142;48.206;11.550;2022-12-07T07:15:37;95679.66;;;4.01;83.95
6218;BME280;3142;48.206;11.550;2022-12-07T07:18:04;95680.31;;;4.03;82.92
6218;BME280;3142;48.206;11.550;2022-12-07T07:20:30;95677.22;;;3.99;83.44
6218;BME280;3142;48.206;11.550;2022-12-07T07:22:57;95678.03;;;4.00;82.80
6218;BME280;3142;48.206;11.550;2022-12-07T07:25:25;95681.25;;;3.94;83.20
6218;BME280;3142;48.206;11.550;2022-12-07T07:27:51;95676.25;;;3.92;82.33
6218;BME280;3142;48.206;11.550;2022-12-07T07:30:17;95684.81;;;3.93;83.19
6218;BME280;3142;48.206;11.550;2022-12-07T07:32:44;95685.28;;;3.96;82.95
6218;BME280;3142;48.206;11.550;2022-12-07T07:35:10;95687.88;;;3.96;83.10
6218;BME280;3142;48.206;11.550;2022-12-07T07:37:39;95696.31;;;3.98;83.10
6218;BME280;3142;48.206;11.550;2022-12-07T07:40:06;95683.69;;;4.03;82.81
6218;BME280;3142;48.206;11.550;2022-12-07T07:42:34;95694.38;;;4.00;82.67
6218;BME280;3142;48.206;11.550;2022-12-07T07:45:01;95689.19;;;4.00;82.61
6218;BME280;3142;48.206;11.550;2022-12-07T07:47:27;95686.44;;;4.02;82.87
6218;BME280;3142;48.206;11.550;2022-12-07T07:49:54;95682.25;;;4.01;82.85
6218;BME280;3142;48.206;11.550;2022-12-07T07:52:21;95692.44;;;4.02;82.26
6218;BME280;3142;48.206;11.550;2022-12-07T07:54:47;95688.69;;;3.97;82.08
6218;BME280;3142;48.206;11.550;2022-12-07T07:57:14;95689.66;;;3.96;82.52
6218;BME280;3142;48.206;11.550;2022-12-07T07:59:43;95691.94;;;3.99;82.38
6218;BME280;3142;48.206;11.550;2022-12-07T08:02:13;95685.28;;;3.96;82.41
6218;BME280;3142;48.206;11.550;2022-12-07T08:04:40;95689.19;;;3.92;81.92
6218;BME280;3142;48.206;11.550;2022-12-07T08:07:07;95690.47;;;3.96;81.85
6218;BME280;3142;48.206;11.550;2022-12-07T08:09:33;95693.56;;;4.00;81.99
6218;BME280;3142;48.206;11.550;2022-12-07T08:12:00;95693.72;;;3.98;81.82
6218;BME280;3142;48.206;11.550;2022-12-07T08:14:27;95700.81;;;3.96;81.63
6218;BME280;3142;48.206;11.550;2022-12-07T08:16:55;95707.16;;;4.02;81.75
6218;BME280;3142;48.206;11.550;2022-12-07T08:19:21;95697.28;;;4.05;80.77
6218;BME280;3142;48.206;11.550;2022-12-07T08:21:48;95707.16;;;4.10;80.71
6218;BME280;3142;48.206;11.550;2022-12-07T08:24:15;95698.13;;;4.14;80.33
6218;BME280;3142;48.206;11.550;2022-12-07T08:26:41;95700.72;;;4.14;80.46
6218;BME280;3142;48.206;11.550;2022-12-07T08:29:08;95707.19;;;4.18;80.70
6218;BME280;3142;48.206;11.550;2022-12-07T08:31:35;95704.44;;;4.20;80.75
6218;BME280;3142;48.206;11.550;2022-12-07T08:34:03;95699.56;;;4.25;80.19
6218;BME280;3142;48.206;11.550;2022-12-07T08:36:29;95705.88;;;4.22;80.18
6218;BME280;3142;48.206;11.550;2022-12-07T08:38:56;95703.28;;;4.22;80.36
6218;BME280;3142;48.206;11.550;2022-12-07T08:41:22;95706.53;;;4.24;80.51
6218;BME280;3142;48.206;11.550;2022-12-07T08:43:49;95708.97;;;4.26;79.64
6218;BME280;3142;48.206;11.550;2022-12-07T08:46:19;95711.69;;;4.24;79.68
6218;BME280;3142;48.206;11.550;2022-12-07T08:48:51;95707.19;;;4.26;79.35
6218;BME280;3142;48.206;11.550;2022-12-07T08:51:21;95707.34;;;4.33;79.23
6218;BME280;3142;48.206;11.550;2022-12-07T08:53:48;95712.03;;;4.37;79.24
6218;BME280;3142;48.206;11.550;2022-12-07T08:56:15;95709.97;;;4.41;80.47
6218;BME280;3142;48.206;11.550;2022-12-07T08:58:42;95709.47;;;4.45;79.52
6218;BME280;3142;48.206;11.550;2022-12-07T09:01:09;95709.63;;;4.44;79.37
6218;BME280;3142;48.206;11.550;2022-12-07T09:03:35;95699.75;;;4.47;78.81
6218;BME280;3142;48.206;11.550;2022-12-07T09:06:02;95704.59;;;4.51;78.94
6218;BME280;3142;48.206;11.550;2022-12-07T09:08:33;95706.09;;;4.53;78.40
6218;BME280;3142;48.206;11.550;2022-12-07T09:11:02;95706.38;;;4.50;78.96
6218;BME280;3142;48.206;11.550;2022-12-07T09:13:28;95714.47;;;4.63;79.13
6218;BME280;3142;48.206;11.550;2022-12-07T09:15:54;95703.78;;;4.74;78.39
6218;BME280;3142;48.206;11.550;2022-12-07T09:18:21;95704.09;;;4.80;77.63
6218;BME280;3142;48.206;11.550;2022-12-07T09:20:47;95704.94;;;4.80;77.28
6218;BME280;3142;48.206;11.550;2022-12-07T09:23:14;95702.97;;;4.74;76.66
6218;BME280;3142;48.206;11.550;2022-12-07T09:25:42;95710.28;;;4.70;76.58
6218;BME280;3142;48.206;11.550;2022-12-07T09:28:08;95709.78;;;4.75;76.99
6218;BME280;3142;48.206;11.550;2022-12-07T09:30:35;95708.16;;;4.82;76.55
6218;BME280;3142;48.206;11.550;2022-12-07T09:33:01;95715.31;;;4.80;76.65
6218;BME280;3142;48.206;11.550;2022-12-07T09:35:28;95708.81;;;4.84;76.41
6218;BME280;3142;48.206;11.550;2022-12-07T09:37:55;95709.91;;;4.90;75.87
6218;BME280;3142;48.206;11.550;2022-12-07T09:40:22;95706.06;;;4.94;75.22
6218;BME280;3142;48.206;11.550;2022-12-07T09:42:52;95703.28;;;4.95;75.15
6218;BME280;3142;48.206;11.550;2022-12-07T09:45:22;95704.09;;;4.96;75.57
6218;BME280;3142;48.206;11.550;2022-12-07T09:47:49;95697.59;;;5.00;75.30
6218;BME280;3142;48.206;11.550;2022-12-07T09:50:19;95693.22;;;5.09;75.09
6218;BME280;3142;48.206;11.550;2022-12-07T09:52:47;95695.00;;;5.08;75.32
6218;BME280;3142;48.206;11.550;2022-12-07T09:55:16;95692.41;;;5.08;75.27
6218;BME280;3142;48.206;11.550;2022-12-07T09:57:45;95692.41;;;5.08;74.75
6218;BME280;3142;48.206;11.550;2022-12-07T10:00:16;95685.28;;;5.10;74.56
6218;BME280;3142;48.206;11.550;2022-12-07T10:02:44;95675.06;;;5.09;74.23
6218;BME280;3142;48.206;11.550;2022-12-07T10:05:14;95678.94;;;5.21;73.62
6218;BME280;3142;48.206;11.550;2022-12-07T10:07:41;95672.09;;;5.28;72.70
6218;BME280;3142;48.206;11.550;2022-12-07T10:10:14;95669.66;;;5.26;72.43
6218;BME280;3142;48.206;11.550;2022-12-07T10:12:58;95669.38;;;5.21;72.36
6218;BME280;3142;48.206;11.550;2022-12-07T10:15:45;95677.28;;;5.28;72.51
6218;BME280;3142;48.206;11.550;2022-12-07T10:18:21;95678.72;;;5.30;72.05
6218;BME280;3142;48.206;11.550;2022-12-07T10:21:01;95678.88;;;5.29;71.63
6218;BME280;3142;48.206;11.550;2022-12-07T10:23:28;95677.91;;;5.30;71.63
6218;BME280;3142;48.206;11.550;2022-12-07T10:25:54;95675.13;;;5.31;72.18
6218;BME280;3142;48.206;11.550;2022-12-07T10:28:21;95672.38;;;5.33;72.18
6218;BME280;3142;48.206;11.550;2022-12-07T10:30:53;95680.13;;;5.41;71.85
6218;BME280;3142;48.206;11.550;2022-12-07T10:33:33;95673.16;;;5.42;71.59
6218;BME280;3142;48.206;11.550;2022-12-07T10:36:02;95672.97;;;5.51;71.48
6218;BME280;3142;48.206;11.550;2022-12-07T10:38:45;95668.06;;;5.56;71.48
6218;BME280;3142;48.206;11.550;2022-12-07T10:41:12;95661.53;;;5.69;70.29
6218;BME280;3142;48.206;11.550;2022-12-07T10:43:46;95661.88;;;5.65;70.60
6218;BME280;3142;48.206;11.550;2022-12-07T10:46:48;95660.09;;;5.66;70.47
6218;BME280;3142;48.206;11.550;2022-12-07T10:49:39;95658.94;;;5.69;68.99
6218;BME280;3142;48.206;11.550;2022-12-07T10:52:18;95650.16;;;5.70;68.76
6218;BME280;3142;48.206;11.550;2022-12-07T10:54:58;95650.13;;;5.78;68.40
6218;BME280;3142;48.206;11.550;2022-12-07T10:57:39;95646.66;;;5.85;68.43
6218;BME280;3142;48.206;11.550;2022-12-07T11:00:15;95651.41;;;5.90;67.38
6218;BME280;3142;48.206;11.550;2022-12-07T11:03:15;95650.00;;;6.02;67.13
6218;BME280;3142;48.206;11.550;2022-12-07T11:05:49;95649.19;;;6.02;66.46
6218;BME280;3142;48.206;11.550;2022-12-07T11:08:31;95634.00;;;6.13;66.63
6218;BME280;3142;48.206;11.550;2022-12-07T11:11:08;95636.97;;;6.33;65.46
6218;BME280;3142;48.206;11.550;2022-12-07T11:13:40;95640.19;;;6.35;66.12
6218;BME280;3142;48.206;11.550;2022-12-07T11:16:23;95633.66;;;6.39;65.01
6218;BME280;3142;48.206;11.550;2022-12-07T11:19:16;95638.56;;;6.34;63.94
6218;BME280;3142;48.206;11.550;2022-12-07T11:21:50;95630.88;;;6.41;64.17
6218;BME280;3142;48.206;11.550;2022-12-07T11:24:24;95627.91;;;6.44;62.43
6218;BME280;3142;48.206;11.550;2022-12-07T11:27:06;95630.50;;;6.44;62.06
6218;BME280;3142;48.206;11.550;2022-12-07T11:32:44;95619.28;;;6.29;61.86
6218;BME280;3142;48.206;11.550;2022-12-07T11:35:21;95621.88;;;6.29;61.98
6218;BME280;3142;48.206;11.550;2022-12-07T11:37:55;95618.59;;;6.35;61.95
6218;BME280;3142;48.206;11.550;2022-12-07T11:40:26;95621.00;;;6.36;61.55
6218;BME280;3142;48.206;11.550;2022-12-07T11:42:58;95619.00;;;6.46;61.06
6218;BME280;3142;48.206;11.550;2022-12-07T11:45:27;95605.19;;;6.46;60.82
6218;BME280;3142;48.206;11.550;2022-12-07T11:47:58;95608.41;;;6.48;61.35
6218;BME280;3142;48.206;11.550;2022-12-07T11:50:33;95594.44;;;6.49;60.57
6218;BME280;3142;48.206;11.550;2022-12-07T11:53:03;95593.81;;;6.62;60.07
6218;BME280;3142;48.206;11.550;2022-12-07T11:55:41;95592.78;;;7.00;59.09
6218;BME280;3142;48.206;11.550;2022-12-07T11:58:22;95593.81;;;7.21;59.65
6218;BME280;3142;48.206;11.550;2022-12-07T12:01:11;95588.41;;;7.37;58.72
6218;BME280;3142;48.206;11.550;2022-12-07T12:03:41;95589.69;;;7.41;59.40
6218;BME280;3142;48.206;11.550;2022-12-07T12:06:11;95582.94;;;7.32;58.93
6218;BME280;3142;48.206;11.550;2022-12-07T12:08:42;95579.56;;;7.53;58.98
6218;BME280;3142;48.206;11.550;2022-12-07T12:11:22;95576.50;;;7.64;59.23
6218;BME280;3142;48.206;11.550;2022-12-07T12:14:20;95573.53;;;7.88;59.11
6218;BME280;3142;48.206;11.550;2022-12-07T12:20:16;95566.66;;;8.02;55.97
6218;BME280;3142;48.206;11.550;2022-12-07T12:22:51;95557.47;;;8.06;55.50
6218;BME280;3142;48.206;11.550;2022-12-07T12:25:21;95567.53;;;8.09;56.37
6218;BME280;3142;48.206;11.550;2022-12-07T12:27:50;95554.31;;;8.11;56.65
6218;BME280;3142;48.206;11.550;2022-12-07T12:30:33;95561.06;;;8.05;56.39
6218;BME280;3142;48.206;11.550;2022-12-07T12:33:05;95556.66;;;8.06;57.00
6218;BME280;3142;48.206;11.550;2022-12-07T12:35:38;95559.66;;;8.02;56.04
6218;BME280;3142;48.206;11.550;2022-12-07T12:38:28;95553.50;;;8.10;56.77
6218;BME280;3142;48.206;11.550;2022-12-07T12:40:56;95554.13;;;8.12;57.04
6218;BME280;3142;48.206;11.550;2022-12-07T12:43:42;95555.34;;;8.16;57.23
6218;BME280;3142;48.206;11.550;2022-12-07T12:49:32;95556.38;;;8.22;55.49
6218;BME280;3142;48.206;11.550;2022-12-07T12:52:00;95551.94;;;8.37;54.74
6218;BME280;3142;48.206;11.550;2022-12-07T12:54:31;95554.56;;;8.37;54.38
6218;BME280;3142;48.206;11.550;2022-12-07T12:57:00;95555.38;;;8.38;53.78
6218;BME280;3142;48.206;11.550;2022-12-07T12:59:31;95546.19;;;8.48;54.73
6218;BME280;3142;48.206;11.550;2022-12-07T13:02:16;95545.63;;;8.53;54.09
6218;BME280;3142;48.206;11.550;2022-12-07T13:04:55;95547.75;;;8.71;53.90
6218;BME280;3142;48.206;11.550;2022-12-07T13:07:58;95544.03;;;8.86;53.89
6218;BME280;3142;48.206;11.550;2022-12-07T13:10:34;95545.75;;;8.73;51.36
6218;BME280;3142;48.206;11.550;2022-12-07T13:15:35;95533.03;;;8.56;52.27
6218;BME280;3142;48.206;11.550;2022-12-07T13:18:14;95530.53;;;8.48;53.07
6218;BME280;3142;48.206;11.550;2022-12-07T13:20:57;95541.69;;;8.36;52.64
6218;BME280;3142;48.206;11.550;2022-12-07T13:23:27;95526.31;;;8.19;52.95
6218;BME280;3142;48.206;11.550;2022-12-07T13:26:02;95530.25;;;8.09;53.24
6218;BME280;3142;48.206;11.550;2022-12-07T13:28:35;95534.78;;;8.00;53.84
6218;BME280;3142;48.206;11.550;2022-12-07T13:31:28;95528.69;;;7.93;54.43
6218;BME280;3142;48.206;11.550;2022-12-07T13:33:57;95532.44;;;7.84;55.25
6218;BME280;3142;48.206;11.550;2022-12-07T13:36:25;95527.16;;;7.77;54.74
6218;BME280;3142;48.206;11.550;2022-12-07T13:38:54;95529.53;;;7.72;56.12
6218;BME280;3142;48.206;11.550;2022-12-07T13:41:24;95530.31;;;7.72;55.91
6218;BME280;3142;48.206;11.550;2022-12-07T13:43:54;95538.06;;;7.66;55.61
6218;BME280;3142;48.206;11.550;2022-12-07T13:46:30;95524.44;;;7.64;55.47
6218;BME280;3142;48.206;11.550;2022-12-07T13:48:58;95524.31;;;7.72;55.85
6218;BME280;3142;48.206;11.550;2022-12-07T13:51:26;95527.47;;;7.67;55.19
6218;BME280;3142;48.206;11.550;2022-12-07T13:53:55;95532.94;;;7.72;55.30